sensor_id;sensor_type;location;lat;lon;timestamp;pressure;altitude;pressure_sealevel;temperature;humidity
22261;BME280;11299;43.202;27.920;2022-08-02T00:00:00;100755.88;;;21.61;100.00
22261;BME280;11299;43.202;27.920;2022-08-02T00:02:26;100744.63;;;21.61;100.00
22261;BME280;11299;43.202;27.920;2022-08-02T00:04:52;100788.47;;;21.93;100.00
22261;BME280;11299;43.202;27.920;2022-08-02T00:07:18;100724.56;;;22.10;100.00
22261;BME280;11299;43.202;27.920;2022-08-02T00:09:44;100720.75;;;22.23;100.00
22261;BME280;11299;43.202;27.920;2022-08-02T00:12:09;100701.34;;;22.13;100.00
22261;BME280;11299;43.202;27.920;2022-08-02T00:14:36;100692.88;;;22.30;100.00
22261;BME280;11299;43.202;27.920;2022-08-02T00:17:02;100754.56;;;22.58;100.00
22261;BME280;11299;43.202;27.920;2022-08-02T00:19:27;100705.13;;;22.52;100.00
22261;BME280;11299;43.202;27.920;2022-08-02T00:21:53;100720.38;;;22.68;100.00
22261;BME280;11299;43.202;27.920;2022-08-02T00:24:18;100634.88;;;22.12;100.00
22261;BME280;11299;43.202;27.920;2022-08-02T00:26:44;100723.34;;;22.80;100.00
22261;BME280;11299;43.202;27.920;2022-08-02T00:29:09;100680.59;;;22.43;100.00
22261;BME280;11299;43.202;27.920;2022-08-02T00:31:35;100716.38;;;22.86;100.00
22261;BME280;11299;43.202;27.920;2022-08-02T00:34:01;100739.56;;;23.00;100.00
22261;BME280;11299;43.202;27.920;2022-08-02T00:36:26;100670.00;;;22.58;100.00
22261;BME280;11299;43.202;27.920;2022-08-02T00:39:10;100732.63;;;22.89;100.00
22261;BME280;11299;43.202;27.920;2022-08-02T00:41:47;100714.72;;;22.85;100.00
22261;BME280;11299;43.202;27.920;2022-08-02T00:44:17;100736.22;;;22.98;100.00
22261;BME280;11299;43.202;27.920;2022-08-02T00:46:44;100725.50;;;22.91;100.00
22261;BME280;11299;43.202;27.920;2022-08-02T00:49:10;100747.50;;;23.06;100.00
22261;BME280;11299;43.202;27.920;2022-08-02T00:51:36;100646.63;;;22.31;100.00
22261;BME280;11299;43.202;27.920;2022-08-02T00:54:03;100635.19;;;22.54;100.00
22261;BME280;11299;43.202;27.920;2022-08-02T00:56:29;100752.41;;;23.35;100.00
22261;BME280;11299;43.202;27.920;2022-08-02T00:58:54;100741.13;;;23.35;100.00
22261;BME280;11299;43.202;27.920;2022-08-02T01:01:20;100722.56;;;23.17;100.00
22261;BME280;11299;43.202;27.920;2022-08-02T01:03:45;100744.44;;;23.37;100.00
22261;BME280;11299;43.202;27.920;2022-08-02T01:06:11;100618.91;;;22.68;100.00
22261;BME280;11299;43.202;27.920;2022-08-02T01:08:38;100769.94;;;23.49;100.00
22261;BME280;11299;43.202;27.920;2022-08-02T01:11:04;100789.84;;;23.53;100.00
22261;BME280;11299;43.202;27.920;2022-08-02T01:13:30;100665.78;;;22.81;100.00
22261;BME280;11299;43.202;27.920;2022-08-02T01:16:12;100767.69;;;23.34;100.00
22261;BME280;11299;43.202;27.920;2022-08-02T01:18:44;100785.97;;;23.19;100.00
22261;BME280;11299;43.202;27.920;2022-08-02T01:24:23;100756.41;;;23.17;100.00
22261;BME280;11299;43.202;27.920;2022-08-02T01:29:32;100796.75;;;23.17;100.00
22261;BME280;11299;43.202;27.920;2022-08-02T01:32:08;100777.19;;;23.12;100.00
22261;BME280;11299;43.202;27.920;2022-08-02T01:37:27;100773.53;;;23.03;100.00
22261;BME280;11299;43.202;27.920;2022-08-02T01:39:55;100776.41;;;22.95;100.00
22261;BME280;11299;43.202;27.920;2022-08-02T01:42:23;100779.41;;;22.90;100.00
22261;BME280;11299;43.202;27.920;2022-08-02T01:44:51;100781.75;;;22.71;100.00
22261;BME280;11299;43.202;27.920;2022-08-02T01:47:21;100741.28;;;22.67;100.00
22261;BME280;11299;43.202;27.920;2022-08-02T01:49:51;100738.13;;;22.51;100.00
22261;BME280;11299;43.202;27.920;2022-08-02T01:52:19;100732.53;;;22.60;100.00
22261;BME280;11299;43.202;27.920;2022-08-02T01:54:49;100771.78;;;22.82;100.00
22261;BME280;11299;43.202;27.920;2022-08-02T01:57:17;100779.91;;;22.66;100.00
22261;BME280;11299;43.202;27.920;2022-08-02T01:59:45;100768.97;;;22.82;100.00
22261;BME280;11299;43.202;27.920;2022-08-02T02:02:15;100775.13;;;22.67;100.00
22261;BME280;11299;43.202;27.920;2022-08-02T02:04:42;100717.25;;;22.35;100.00
22261;BME280;11299;43.202;27.920;2022-08-02T02:07:12;100779.44;;;22.73;100.00
22261;BME280;11299;43.202;27.920;2022-08-02T02:09:40;100775.13;;;22.67;100.00
22261;BME280;11299;43.202;27.920;2022-08-02T02:12:08;100782.06;;;22.78;100.00
22261;BME280;11299;43.202;27.920;2022-08-02T02:14:36;100637.25;;;21.93;100.00
22261;BME280;11299;43.202;27.920;2022-08-02T02:17:02;100771.09;;;22.85;100.00
22261;BME280;11299;43.202;27.920;2022-08-02T02:19:29;100773.31;;;22.71;100.00
22261;BME280;11299;43.202;27.920;2022-08-02T02:21:57;100785.84;;;22.90;100.00
22261;BME280;11299;43.202;27.920;2022-08-02T02:24:23;100761.84;;;22.76;100.00
22261;BME280;11299;43.202;27.920;2022-08-02T02:26:49;100774.41;;;22.53;100.00
22261;BME280;11299;43.202;27.920;2022-08-02T02:29:17;100768.81;;;22.70;100.00
22261;BME280;11299;43.202;27.920;2022-08-02T02:31:45;100776.25;;;22.66;100.00
22261;BME280;11299;43.202;27.920;2022-08-02T02:34:32;100732.16;;;22.35;100.00
22261;BME280;11299;43.202;27.920;2022-08-02T02:37:05;100783.72;;;22.62;100.00
22261;BME280;11299;43.202;27.920;2022-08-02T02:39:32;100772.75;;;22.43;100.00
22261;BME280;11299;43.202;27.920;2022-08-02T02:42:01;100782.38;;;22.51;100.00
22261;BME280;11299;43.202;27.920;2022-08-02T02:44:28;100730.19;;;22.10;100.00
22261;BME280;11299;43.202;27.920;2022-08-02T02:46:55;100697.34;;;21.89;100.00
22261;BME280;11299;43.202;27.920;2022-08-02T02:49:22;100459.06;;;20.42;100.00
22261;BME280;11299;43.202;27.920;2022-08-02T02:51:49;100776.75;;;22.33;100.00
22261;BME280;11299;43.202;27.920;2022-08-02T02:54:16;100784.88;;;22.26;100.00
22261;BME280;11299;43.202;27.920;2022-08-02T02:56:43;100810.56;;;22.25;100.00
22261;BME280;11299;43.202;27.920;2022-08-02T02:59:12;100758.16;;;21.98;100.00
22261;BME280;11299;43.202;27.920;2022-08-02T03:01:38;100774.06;;;22.11;100.00
22261;BME280;11299;43.202;27.920;2022-08-02T03:04:06;100775.22;;;21.93;100.00
22261;BME280;11299;43.202;27.920;2022-08-02T03:06:36;100680.22;;;21.51;100.00
22261;BME280;11299;43.202;27.920;2022-08-02T03:09:03;100695.78;;;21.57;100.00
22261;BME280;11299;43.202;27.920;2022-08-02T03:11:30;100764.47;;;21.95;100.00
22261;BME280;11299;43.202;27.920;2022-08-02T03:14:00;100698.44;;;21.62;100.00
22261;BME280;11299;43.202;27.920;2022-08-02T03:16:26;100780.22;;;22.13;100.00
22261;BME280;11299;43.202;27.920;2022-08-02T03:18:56;100759.00;;;22.07;100.00
22261;BME280;11299;43.202;27.920;2022-08-02T03:21:22;100794.31;;;22.30;100.00
22261;BME280;11299;43.202;27.920;2022-08-02T03:23:48;100805.91;;;22.29;100.00
22261;BME280;11299;43.202;27.920;2022-08-02T03:26:14;100760.81;;;22.20;100.00
22261;BME280;11299;43.202;27.920;2022-08-02T03:28:40;100746.22;;;22.01;100.00
22261;BME280;11299;43.202;27.920;2022-08-02T03:31:06;100791.31;;;22.18;100.00
22261;BME280;11299;43.202;27.920;2022-08-02T03:33:32;100781.72;;;22.36;100.00
22261;BME280;11299;43.202;27.920;2022-08-02T03:36:09;100779.41;;;22.21;100.00
22261;BME280;11299;43.202;27.920;2022-08-02T03:38:35;100777.56;;;22.34;100.00
22261;BME280;11299;43.202;27.920;2022-08-02T03:41:02;100774.75;;;22.25;100.00
22261;BME280;11299;43.202;27.920;2022-08-02T03:43:29;100762.13;;;22.14;100.00
22261;BME280;11299;43.202;27.920;2022-08-02T03:45:57;100766.63;;;22.15;100.00
22261;BME280;11299;43.202;27.920;2022-08-02T03:48:24;100777.88;;;22.24;100.00
22261;BME280;11299;43.202;27.920;2022-08-02T03:50:51;100813.53;;;22.28;100.00
22261;BME280;11299;43.202;27.920;2022-08-02T03:53:17;100840.06;;;22.27;100.00
22261;BME280;11299;43.202;27.920;2022-08-02T03:55:44;100790.16;;;22.28;100.00
22261;BME280;11299;43.202;27.920;2022-08-02T03:58:16;100789.66;;;22.17;100.00
22261;BME280;11299;43.202;27.920;2022-08-02T04:00:42;100806.72;;;22.29;100.00
22261;BME280;11299;43.202;27.920;2022-08-02T04:03:08;100788.53;;;22.27;100.00
22261;BME280;11299;43.202;27.920;2022-08-02T04:05:33;100837.25;;;22.44;100.00
22261;BME280;11299;43.202;27.920;2022-08-02T04:07:59;100804.09;;;22.41;100.00
22261;BME280;11299;43.202;27.920;2022-08-02T04:10:25;100848.72;;;22.57;100.00
22261;BME280;11299;43.202;27.920;2022-08-02T04:12:51;100774.41;;;22.35;100.00
22261;BME280;11299;43.202;27.920;2022-08-02T04:15:17;100811.44;;;22.60;100.00
22261;BME280;11299;43.202;27.920;2022-08-02T04:17:48;100784.03;;;22.43;100.00
22261;BME280;11299;43.202;27.920;2022-08-02T04:20:18;100806.44;;;22.74;100.00
22261;BME280;11299;43.202;27.920;2022-08-02T04:22:57;100705.31;;;22.04;100.00
22261;BME280;11299;43.202;27.920;2022-08-02T04:25:25;100810.94;;;22.75;100.00
22261;BME280;11299;43.202;27.920;2022-08-02T04:27:51;100793.34;;;22.61;100.00
22261;BME280;11299;43.202;27.920;2022-08-02T04:30:17;100802.50;;;22.75;100.00
22261;BME280;11299;43.202;27.920;2022-08-02T04:32:44;100775.75;;;22.64;100.00
22261;BME280;11299;43.202;27.920;2022-08-02T04:35:10;100649.16;;;21.90;100.00
22261;BME280;11299;43.202;27.920;2022-08-02T04:37:39;100699.19;;;22.10;100.00
22261;BME280;11299;43.202;27.920;2022-08-02T04:40:09;100762.66;;;22.68;100.00
22261;BME280;11299;43.202;27.920;2022-08-02T04:42:35;100689.91;;;22.27;100.00
22261;BME280;11299;43.202;27.920;2022-08-02T04:45:03;100806.47;;;22.82;100.00
22261;BME280;11299;43.202;27.920;2022-08-02T04:47:29;100818.88;;;22.98;100.00
22261;BME280;11299;43.202;27.920;2022-08-02T04:49:54;100812.56;;;22.93;100.00
22261;BME280;11299;43.202;27.920;2022-08-02T04:52:20;100826.19;;;22.99;100.00
22261;BME280;11299;43.202;27.920;2022-08-02T04:54:45;100806.25;;;22.96;100.00
22261;BME280;11299;43.202;27.920;2022-08-02T04:57:11;100826.00;;;23.04;100.00
22261;BME280;11299;43.202;27.920;2022-08-02T04:59:55;100703.47;;;22.33;100.00
22261;BME280;11299;43.202;27.920;2022-08-02T05:02:21;100818.69;;;23.12;100.00
22261;BME280;11299;43.202;27.920;2022-08-02T05:04:47;100819.03;;;23.02;100.00
22261;BME280;11299;43.202;27.920;2022-08-02T05:07:12;100798.63;;;23.05;100.00
22261;BME280;11299;43.202;27.920;2022-08-02T05:09:38;100830.16;;;23.07;100.00
22261;BME280;11299;43.202;27.920;2022-08-02T05:12:04;100807.03;;;23.22;100.00
22261;BME280;11299;43.202;27.920;2022-08-02T05:14:30;100838.06;;;23.39;100.00
22261;BME280;11299;43.202;27.920;2022-08-02T05:16:55;100827.16;;;23.12;100.00
22261;BME280;11299;43.202;27.920;2022-08-02T05:19:21;100808.19;;;23.29;100.00
22261;BME280;11299;43.202;27.920;2022-08-02T05:21:46;100794.44;;;23.19;100.00
22261;BME280;11299;43.202;27.920;2022-08-02T05:24:12;100833.91;;;23.37;100.00
22261;BME280;11299;43.202;27.920;2022-08-02T05:26:38;100691.88;;;22.61;100.00
22261;BME280;11299;43.202;27.920;2022-08-02T05:29:03;100698.81;;;22.55;100.00
22261;BME280;11299;43.202;27.920;2022-08-02T05:31:29;100695.19;;;22.45;100.00
22261;BME280;11299;43.202;27.920;2022-08-02T05:33:55;100847.34;;;23.40;100.00
22261;BME280;11299;43.202;27.920;2022-08-02T05:36:20;100824.13;;;23.34;100.00
22261;BME280;11299;43.202;27.920;2022-08-02T05:38:46;100785.66;;;23.04;100.00
22261;BME280;11299;43.202;27.920;2022-08-02T05:41:11;100818.75;;;23.50;100.00
22261;BME280;11299;43.202;27.920;2022-08-02T05:43:37;100729.09;;;23.00;100.00
22261;BME280;11299;43.202;27.920;2022-08-02T05:46:03;100815.44;;;23.56;100.00
22261;BME280;11299;43.202;27.920;2022-08-02T05:48:28;100833.31;;;23.60;100.00
22261;BME280;11299;43.202;27.920;2022-08-02T05:54:16;100843.56;;;23.73;100.00
22261;BME280;11299;43.202;27.920;2022-08-02T05:56:54;100812.72;;;23.68;100.00
22261;BME280;11299;43.202;27.920;2022-08-02T05:59:46;100844.56;;;24.15;100.00
22261;BME280;11299;43.202;27.920;2022-08-02T06:05:48;100829.69;;;24.47;100.00
22261;BME280;11299;43.202;27.920;2022-08-02T06:08:14;100827.09;;;24.63;100.00
22261;BME280;11299;43.202;27.920;2022-08-02T06:10:40;100722.03;;;24.19;100.00
22261;BME280;11299;43.202;27.920;2022-08-02T06:13:13;100827.53;;;24.94;100.00
22261;BME280;11299;43.202;27.920;2022-08-02T06:15:43;100834.34;;;25.26;100.00
22261;BME280;11299;43.202;27.920;2022-08-02T06:18:09;100830.88;;;25.41;100.00
22261;BME280;11299;43.202;27.920;2022-08-02T06:20:35;100534.06;;;23.60;100.00
22261;BME280;11299;43.202;27.920;2022-08-02T06:23:06;100837.56;;;25.36;100.00
22261;BME280;11299;43.202;27.920;2022-08-02T06:25:35;100851.06;;;25.51;100.00
22261;BME280;11299;43.202;27.920;2022-08-02T06:28:04;100729.97;;;24.79;100.00
22261;BME280;11299;43.202;27.920;2022-08-02T06:30:30;100739.16;;;25.09;100.00
22261;BME280;11299;43.202;27.920;2022-08-02T06:32:57;100814.44;;;25.79;100.00
22261;BME280;11299;43.202;27.920;2022-08-02T06:35:29;100841.03;;;26.23;100.00
22261;BME280;11299;43.202;27.920;2022-08-02T06:38:00;100832.84;;;26.33;100.00
22261;BME280;11299;43.202;27.920;2022-08-02T06:40:39;100834.09;;;26.60;100.00
22261;BME280;11299;43.202;27.920;2022-08-02T06:43:12;100834.47;;;26.58;100.00
22261;BME280;11299;43.202;27.920;2022-08-02T06:45:43;100788.56;;;26.29;100.00
22261;BME280;11299;43.202;27.920;2022-08-02T06:48:10;100815.50;;;26.74;100.00
22261;BME280;11299;43.202;27.920;2022-08-02T06:50:36;100842.94;;;27.10;100.00
22261;BME280;11299;43.202;27.920;2022-08-02T06:53:07;100828.78;;;27.26;100.00
22261;BME280;11299;43.202;27.920;2022-08-02T06:55:35;100845.00;;;27.53;100.00
22261;BME280;11299;43.202;27.920;2022-08-02T06:58:02;100844.50;;;27.35;100.00
22261;BME280;11299;43.202;27.920;2022-08-02T07:00:28;100713.72;;;26.45;100.00
22261;BME280;11299;43.202;27.920;2022-08-02T07:02:55;100825.19;;;27.13;100.00
22261;BME280;11299;43.202;27.920;2022-08-02T07:05:22;100841.94;;;27.18;100.00
22261;BME280;11299;43.202;27.920;2022-08-02T07:07:48;100869.72;;;27.52;100.00
22261;BME280;11299;43.202;27.920;2022-08-02T07:10:18;100766.22;;;27.22;98.24
22261;BME280;11299;43.202;27.920;2022-08-02T07:12:48;100782.94;;;27.39;97.96
22261;BME280;11299;43.202;27.920;2022-08-02T07:15:15;100847.66;;;27.92;98.35
22261;BME280;11299;43.202;27.920;2022-08-02T07:17:41;100829.59;;;27.85;96.36
22261;BME280;11299;43.202;27.920;2022-08-02T07:20:07;100796.69;;;27.68;94.82
22261;BME280;11299;43.202;27.920;2022-08-02T07:22:34;100840.25;;;28.19;94.42
22261;BME280;11299;43.202;27.920;2022-08-02T07:25:02;100843.44;;;27.86;92.12
22261;BME280;11299;43.202;27.920;2022-08-02T07:27:31;100713.91;;;27.08;93.37
22261;BME280;11299;43.202;27.920;2022-08-02T07:29:58;100843.09;;;28.04;93.01
22261;BME280;11299;43.202;27.920;2022-08-02T07:32:28;100826.31;;;27.83;91.94
22261;BME280;11299;43.202;27.920;2022-08-02T07:34:56;100833.25;;;28.17;91.76
22261;BME280;11299;43.202;27.920;2022-08-02T07:37:26;100838.09;;;28.32;90.86
22261;BME280;11299;43.202;27.920;2022-08-02T07:39:52;100862.56;;;28.52;91.32
22261;BME280;11299;43.202;27.920;2022-08-02T07:42:18;100819.41;;;28.31;86.98
22261;BME280;11299;43.202;27.920;2022-08-02T07:44:45;100846.53;;;28.44;87.21
22261;BME280;11299;43.202;27.920;2022-08-02T07:47:15;100752.88;;;27.69;88.88
22261;BME280;11299;43.202;27.920;2022-08-02T07:49:41;100846.88;;;28.58;89.59
22261;BME280;11299;43.202;27.920;2022-08-02T07:52:07;100836.00;;;28.29;88.45
22261;BME280;11299;43.202;27.920;2022-08-02T07:54:32;100812.66;;;28.20;88.19
22261;BME280;11299;43.202;27.920;2022-08-02T07:56:59;100842.16;;;28.31;87.55
22261;BME280;11299;43.202;27.920;2022-08-02T07:59:25;100840.88;;;28.28;87.86
22261;BME280;11299;43.202;27.920;2022-08-02T08:01:51;100848.69;;;28.66;85.95
22261;BME280;11299;43.202;27.920;2022-08-02T08:04:17;100834.00;;;28.64;85.55
22261;BME280;11299;43.202;27.920;2022-08-02T08:06:43;100854.94;;;28.91;85.58
22261;BME280;11299;43.202;27.920;2022-08-02T08:09:11;100860.94;;;29.05;84.09
22261;BME280;11299;43.202;27.920;2022-08-02T08:11:37;100846.31;;;29.06;84.43
22261;BME280;11299;43.202;27.920;2022-08-02T08:14:04;100678.09;;;28.35;82.57
22261;BME280;11299;43.202;27.920;2022-08-02T08:16:30;100766.13;;;29.04;80.67
22261;BME280;11299;43.202;27.920;2022-08-02T08:18:56;100835.75;;;29.67;80.49
22261;BME280;11299;43.202;27.920;2022-08-02T08:21:21;100853.00;;;29.97;79.45
22261;BME280;11299;43.202;27.920;2022-08-02T08:23:47;100850.88;;;30.17;79.69
22261;BME280;11299;43.202;27.920;2022-08-02T08:26:12;100699.09;;;29.52;77.85
22261;BME280;11299;43.202;27.920;2022-08-02T08:28:38;100836.94;;;30.34;75.79
22261;BME280;11299;43.202;27.920;2022-08-02T08:31:03;100831.06;;;30.50;76.35
22261;BME280;11299;43.202;27.920;2022-08-02T08:33:29;100733.34;;;30.04;75.71
22261;BME280;11299;43.202;27.920;2022-08-02T08:35:55;100798.16;;;30.30;72.80
22261;BME280;11299;43.202;27.920;2022-08-02T08:38:21;100841.88;;;30.64;72.58
22261;BME280;11299;43.202;27.920;2022-08-02T08:40:50;100828.84;;;30.66;71.17
22261;BME280;11299;43.202;27.920;2022-08-02T08:43:16;100743.13;;;30.03;70.70
22261;BME280;11299;43.202;27.920;2022-08-02T08:45:43;100707.59;;;29.26;73.03
22261;BME280;11299;43.202;27.920;2022-08-02T08:48:12;100843.38;;;30.54;72.40
22261;BME280;11299;43.202;27.920;2022-08-02T08:50:53;100840.69;;;30.68;71.66
22261;BME280;11299;43.202;27.920;2022-08-02T08:53:23;100835.22;;;30.82;71.71
22261;BME280;11299;43.202;27.920;2022-08-02T08:55:51;100816.28;;;31.00;72.17
22261;BME280;11299;43.202;27.920;2022-08-02T08:58:18;100711.75;;;30.63;70.21
22261;BME280;11299;43.202;27.920;2022-08-02T09:00:43;100812.03;;;31.20;70.10
22261;BME280;11299;43.202;27.920;2022-08-02T09:03:10;100811.09;;;30.80;69.38
22261;BME280;11299;43.202;27.920;2022-08-02T09:05:37;100846.53;;;30.49;69.94
22261;BME280;11299;43.202;27.920;2022-08-02T09:08:04;100832.81;;;30.58;70.04
22261;BME280;11299;43.202;27.920;2022-08-02T09:10:38;100722.09;;;30.15;71.65
22261;BME280;11299;43.202;27.920;2022-08-02T09:15:34;100833.88;;;30.76;65.08
22261;BME280;11299;43.202;27.920;2022-08-02T09:18:01;100859.91;;;31.30;65.92
22261;BME280;11299;43.202;27.920;2022-08-02T09:20:27;100813.56;;;31.47;64.84
22261;BME280;11299;43.202;27.920;2022-08-02T09:23:10;100828.53;;;31.71;64.79
22261;BME280;11299;43.202;27.920;2022-08-02T09:25:36;100806.38;;;31.61;62.10
22261;BME280;11299;43.202;27.920;2022-08-02T09:28:06;100811.59;;;31.55;62.96
22261;BME280;11299;43.202;27.920;2022-08-02T09:30:32;100806.56;;;31.82;60.40
22261;BME280;11299;43.202;27.920;2022-08-02T09:32:58;100735.25;;;31.56;60.67
22261;BME280;11299;43.202;27.920;2022-08-02T09:35:30;100732.53;;;31.29;61.91
22261;BME280;11299;43.202;27.920;2022-08-02T09:38:10;100814.72;;;31.80;62.47
22261;BME280;11299;43.202;27.920;2022-08-02T09:40:37;100813.28;;;31.96;61.09
22261;BME280;11299;43.202;27.920;2022-08-02T09:43:04;100821.19;;;32.13;59.57
22261;BME280;11299;43.202;27.920;2022-08-02T09:45:34;100807.72;;;32.17;57.49
22261;BME280;11299;43.202;27.920;2022-08-02T09:48:09;100740.34;;;31.80;57.72
22261;BME280;11299;43.202;27.920;2022-08-02T09:50:40;100827.50;;;32.40;59.13
22261;BME280;11299;43.202;27.920;2022-08-02T09:53:12;100821.84;;;32.44;58.62
22261;BME280;11299;43.202;27.920;2022-08-02T09:55:39;100814.97;;;32.59;57.89
22261;BME280;11299;43.202;27.920;2022-08-02T09:58:18;100787.50;;;32.47;56.63
22261;BME280;11299;43.202;27.920;2022-08-02T10:00:55;100817.75;;;32.52;57.91
22261;BME280;11299;43.202;27.920;2022-08-02T10:03:23;100814.34;;;32.32;56.64
22261;BME280;11299;43.202;27.920;2022-08-02T10:05:54;100711.28;;;31.71;55.67
22261;BME280;11299;43.202;27.920;2022-08-02T10:08:20;100706.19;;;31.97;55.66
22261;BME280;11299;43.202;27.920;2022-08-02T10:10:46;100811.81;;;32.81;55.71
22261;BME280;11299;43.202;27.920;2022-08-02T10:13:12;100804.13;;;32.99;55.42
22261;BME280;11299;43.202;27.920;2022-08-02T10:15:38;100804.28;;;33.42;55.67
22261;BME280;11299;43.202;27.920;2022-08-02T10:18:05;100800.22;;;33.64;53.41
22261;BME280;11299;43.202;27.920;2022-08-02T10:20:42;100791.22;;;33.76;54.68
22261;BME280;11299;43.202;27.920;2022-08-02T10:23:10;100785.06;;;33.49;52.09
22261;BME280;11299;43.202;27.920;2022-08-02T10:25:38;100826.88;;;33.54;52.15
22261;BME280;11299;43.202;27.920;2022-08-02T10:28:07;100809.16;;;33.38;52.38
22261;BME280;11299;43.202;27.920;2022-08-02T10:30:38;100684.34;;;32.36;53.41
22261;BME280;11299;43.202;27.920;2022-08-02T10:33:06;100792.69;;;33.03;53.10
22261;BME280;11299;43.202;27.920;2022-08-02T10:35:37;100810.41;;;33.40;51.67
22261;BME280;11299;43.202;27.920;2022-08-02T10:38:06;100792.00;;;33.48;50.80
22261;BME280;11299;43.202;27.920;2022-08-02T10:41:01;100809.09;;;33.16;51.25
22261;BME280;11299;43.202;27.920;2022-08-02T10:46:34;100806.66;;;33.22;52.04
22261;BME280;11299;43.202;27.920;2022-08-02T10:49:15;100790.72;;;33.39;51.92
22261;BME280;11299;43.202;27.920;2022-08-02T10:56:59;100782.19;;;33.63;50.43
22261;BME280;11299;43.202;27.920;2022-08-02T10:59:36;100810.09;;;33.94;50.47
22261;BME280;11299;43.202;27.920;2022-08-02T11:02:04;100813.41;;;34.00;48.86
22261;BME280;11299;43.202;27.920;2022-08-02T11:07:14;100701.47;;;33.54;49.93
22261;BME280;11299;43.202;27.920;2022-08-02T11:09:42;100810.09;;;34.37;50.22
22261;BME280;11299;43.202;27.920;2022-08-02T11:12:10;100813.38;;;34.32;49.96
22261;BME280;11299;43.202;27.920;2022-08-02T11:14:40;100808.44;;;34.36;47.99
22261;BME280;11299;43.202;27.920;2022-08-02T11:17:11;100816.66;;;34.09;48.76
22261;BME280;11299;43.202;27.920;2022-08-02T11:22:40;100804.34;;;33.77;48.97
22261;BME280;11299;43.202;27.920;2022-08-02T11:27:58;100799.44;;;33.67;49.15
22261;BME280;11299;43.202;27.920;2022-08-02T11:30:25;100810.88;;;33.60;49.85
22261;BME280;11299;43.202;27.920;2022-08-02T11:32:55;100810.91;;;33.70;48.11
22261;BME280;11299;43.202;27.920;2022-08-02T11:35:21;100807.59;;;33.51;48.87
22261;BME280;11299;43.202;27.920;2022-08-02T11:37:47;100809.25;;;33.62;50.66
22261;BME280;11299;43.202;27.920;2022-08-02T11:40:15;100797.78;;;33.55;50.31
22261;BME280;11299;43.202;27.920;2022-08-02T11:42:44;100793.69;;;33.74;50.74
22261;BME280;11299;43.202;27.920;2022-08-02T11:45:12;100800.28;;;33.99;49.23
22261;BME280;11299;43.202;27.920;2022-08-02T11:47:46;100812.13;;;33.69;50.61
22261;BME280;11299;43.202;27.920;2022-08-02T11:50:12;100797.78;;;33.66;51.62
22261;BME280;11299;43.202;27.920;2022-08-02T11:52:38;100791.22;;;33.90;49.28
22261;BME280;11299;43.202;27.920;2022-08-02T11:55:06;100659.69;;;33.28;48.23
22261;BME280;11299;43.202;27.920;2022-08-02T11:57:33;100770.78;;;33.98;48.96
22261;BME280;11299;43.202;27.920;2022-08-02T11:59:58;100799.03;;;34.00;48.94
22261;BME280;11299;43.202;27.920;2022-08-02T12:02:26;100785.91;;;33.81;48.18
22261;BME280;11299;43.202;27.920;2022-08-02T12:04:56;100800.22;;;33.64;47.54
22261;BME280;11299;43.202;27.920;2022-08-02T12:07:35;100784.69;;;33.72;49.14
22261;BME280;11299;43.202;27.920;2022-08-02T12:12:28;100780.56;;;33.59;49.48
22261;BME280;11299;43.202;27.920;2022-08-02T12:14:54;100815.78;;;33.56;49.88
22261;BME280;11299;43.202;27.920;2022-08-02T12:17:26;100707.34;;;32.54;49.65
22261;BME280;11299;43.202;27.920;2022-08-02T12:20:11;100803.84;;;33.33;49.60
22261;BME280;11299;43.202;27.920;2022-08-02T12:22:38;100801.88;;;33.65;49.63
22261;BME280;11299;43.202;27.920;2022-08-02T12:25:17;100745.75;;;33.57;48.82
22261;BME280;11299;43.202;27.920;2022-08-02T12:27:43;100711.69;;;33.38;47.90
22261;BME280;11299;43.202;27.920;2022-08-02T12:30:12;100777.31;;;33.78;47.68
22261;BME280;11299;43.202;27.920;2022-08-02T12:32:39;100787.56;;;34.00;46.89
22261;BME280;11299;43.202;27.920;2022-08-02T12:35:14;100802.69;;;33.90;47.42
22261;BME280;11299;43.202;27.920;2022-08-02T12:37:46;100353.75;;;31.35;47.87
22261;BME280;11299;43.202;27.920;2022-08-02T12:40:23;100677.31;;;33.66;46.82
22261;BME280;11299;43.202;27.920;2022-08-02T12:42:58;100760.44;;;34.54;45.87
22261;BME280;11299;43.202;27.920;2022-08-02T12:45:25;100783.28;;;34.85;46.30
22261;BME280;11299;43.202;27.920;2022-08-02T12:47:53;100662.41;;;34.38;45.58
22261;BME280;11299;43.202;27.920;2022-08-02T12:50:26;100804.00;;;35.32;44.57
22261;BME280;11299;43.202;27.920;2022-08-02T12:55:28;100703.94;;;33.87;46.49
22261;BME280;11299;43.202;27.920;2022-08-02T12:57:57;100791.66;;;34.27;46.76
22261;BME280;11299;43.202;27.920;2022-08-02T13:00:34;100780.19;;;34.02;45.76
22261;BME280;11299;43.202;27.920;2022-08-02T13:03:00;100768.69;;;33.60;46.49
22261;BME280;11299;43.202;27.920;2022-08-02T13:05:27;100782.13;;;33.32;46.82
22261;BME280;11299;43.202;27.920;2022-08-02T13:07:56;100796.88;;;33.26;46.74
22261;BME280;11299;43.202;27.920;2022-08-02T13:10:23;100786.97;;;33.06;46.79
22261;BME280;11299;43.202;27.920;2022-08-02T13:12:50;100658.19;;;32.38;46.60
22261;BME280;11299;43.202;27.920;2022-08-02T13:15:17;100789.03;;;33.13;47.09
22261;BME280;11299;43.202;27.920;2022-08-02T13:17:54;100762.88;;;33.39;46.37
22261;BME280;11299;43.202;27.920;2022-08-02T13:20:29;100774.00;;;33.90;45.42